sensor_id;sensor_type;location;lat;lon;timestamp;P1;durP1;ratioP1;P2;durP2;ratioP2
1380;SDS011;684;48.342;10.096;2022-11-20T00:01:14;6.33;;;3.80;;
1380;SDS011;684;48.342;10.096;2022-11-20T00:03:43;8.03;;;4.60;;
1380;SDS011;684;48.342;10.096;2022-11-20T00:06:10;6.07;;;4.00;;
1380;SDS011;684;48.342;10.096;2022-11-20T00:08:40;7.37;;;4.10;;
1380;SDS011;684;48.342;10.096;2022-11-20T00:11:07;7.50;;;4.73;;
1380;SDS011;684;48.342;10.096;2022-11-20T00:13:35;8.07;;;4.63;;
1380;SDS011;684;48.342;10.096;2022-11-20T00:16:03;7.63;;;4.57;;
1380;SDS011;684;48.342;10.096;2022-11-20T00:18:33;8.17;;;4.13;;
1380;SDS011;684;48.342;10.096;2022-11-20T00:21:01;8.80;;;4.20;;
1380;SDS011;684;48.342;10.096;2022-11-20T00:23:29;10.90;;;4.40;;
1380;SDS011;684;48.342;10.096;2022-11-20T00:25:56;7.20;;;4.43;;
1380;SDS011;684;48.342;10.096;2022-11-20T00:28:23;7.47;;;4.37;;
1380;SDS011;684;48.342;10.096;2022-11-20T00:30:50;8.00;;;4.13;;
1380;SDS011;684;48.342;10.096;2022-11-20T00:33:16;10.53;;;4.80;;
1380;SDS011;684;48.342;10.096;2022-11-20T00:35:45;6.97;;;4.27;;
1380;SDS011;684;48.342;10.096;2022-11-20T00:38:11;15.50;;;7.93;;
1380;SDS011;684;48.342;10.096;2022-11-20T00:40:38;10.40;;;5.03;;
1380;SDS011;684;48.342;10.096;2022-11-20T00:43:05;7.30;;;3.83;;
1380;SDS011;684;48.342;10.096;2022-11-20T00:45:32;7.80;;;4.33;;
1380;SDS011;684;48.342;10.096;2022-11-20T00:47:59;7.20;;;4.23;;
1380;SDS011;684;48.342;10.096;2022-11-20T00:50:26;9.70;;;5.23;;
1380;SDS011;684;48.342;10.096;2022-11-20T00:52:54;10.07;;;4.57;;
1380;SDS011;684;48.342;10.096;2022-11-20T00:55:21;9.50;;;5.47;;
1380;SDS011;684;48.342;10.096;2022-11-20T00:57:48;8.30;;;4.00;;
1380;SDS011;684;48.342;10.096;2022-11-20T01:00:15;11.33;;;4.50;;
1380;SDS011;684;48.342;10.096;2022-11-20T01:02:42;8.97;;;4.80;;
1380;SDS011;684;48.342;10.096;2022-11-20T01:05:09;8.33;;;4.60;;
1380;SDS011;684;48.342;10.096;2022-11-20T01:07:35;7.00;;;4.43;;
1380;SDS011;684;48.342;10.096;2022-11-20T01:10:04;8.47;;;4.90;;
1380;SDS011;684;48.342;10.096;2022-11-20T01:12:32;8.60;;;3.93;;
1380;SDS011;684;48.342;10.096;2022-11-20T01:14:59;8.10;;;4.20;;
1380;SDS011;684;48.342;10.096;2022-11-20T01:17:26;7.30;;;4.10;;
1380;SDS011;684;48.342;10.096;2022-11-20T01:19:53;6.63;;;4.13;;
1380;SDS011;684;48.342;10.096;2022-11-20T01:22:20;6.80;;;4.30;;
1380;SDS011;684;48.342;10.096;2022-11-20T01:24:47;8.10;;;4.57;;
1380;SDS011;684;48.342;10.096;2022-11-20T01:27:15;9.67;;;4.60;;
1380;SDS011;684;48.342;10.096;2022-11-20T01:29:42;7.23;;;4.33;;
1380;SDS011;684;48.342;10.096;2022-11-20T01:32:09;9.17;;;4.20;;
1380;SDS011;684;48.342;10.096;2022-11-20T01:34:35;8.60;;;4.23;;
1380;SDS011;684;48.342;10.096;2022-11-20T01:37:02;10.20;;;3.87;;
1380;SDS011;684;48.342;10.096;2022-11-20T01:39:29;8.27;;;4.13;;
1380;SDS011;684;48.342;10.096;2022-11-20T01:41:56;7.23;;;4.00;;
1380;SDS011;684;48.342;10.096;2022-11-20T01:44:47;8.70;;;5.03;;
1380;SDS011;684;48.342;10.096;2022-11-20T01:47:17;13.47;;;4.33;;
1380;SDS011;684;48.342;10.096;2022-11-20T01:49:50;9.73;;;5.20;;
1380;SDS011;684;48.342;10.096;2022-11-20T01:52:22;6.63;;;3.73;;
1380;SDS011;684;48.342;10.096;2022-11-20T01:54:54;7.03;;;3.67;;
1380;SDS011;684;48.342;10.096;2022-11-20T01:57:25;7.07;;;3.97;;
1380;SDS011;684;48.342;10.096;2022-11-20T01:59:57;8.23;;;4.30;;
1380;SDS011;684;48.342;10.096;2022-11-20T02:02:27;7.50;;;3.80;;
1380;SDS011;684;48.342;10.096;2022-11-20T02:04:55;6.77;;;4.10;;
1380;SDS011;684;48.342;10.096;2022-11-20T02:07:27;8.10;;;4.10;;
1380;SDS011;684;48.342;10.096;2022-11-20T02:09:54;9.60;;;4.50;;
1380;SDS011;684;48.342;10.096;2022-11-20T02:12:21;7.77;;;4.10;;
1380;SDS011;684;48.342;10.096;2022-11-20T02:15:07;6.87;;;4.30;;
1380;SDS011;684;48.342;10.096;2022-11-20T02:17:35;9.90;;;4.73;;
1380;SDS011;684;48.342;10.096;2022-11-20T02:20:02;7.47;;;4.00;;
1380;SDS011;684;48.342;10.096;2022-11-20T02:22:31;7.40;;;4.23;;
1380;SDS011;684;48.342;10.096;2022-11-20T02:25:04;7.50;;;4.20;;
1380;SDS011;684;48.342;10.096;2022-11-20T02:27:33;7.77;;;4.90;;
1380;SDS011;684;48.342;10.096;2022-11-20T02:30:00;9.03;;;4.60;;
1380;SDS011;684;48.342;10.096;2022-11-20T02:32:29;6.97;;;4.33;;
1380;SDS011;684;48.342;10.096;2022-11-20T02:34:57;9.93;;;4.50;;
1380;SDS011;684;48.342;10.096;2022-11-20T02:37:32;7.70;;;4.13;;
1380;SDS011;684;48.342;10.096;2022-11-20T02:40:02;7.30;;;3.90;;
1380;SDS011;684;48.342;10.096;2022-11-20T02:42:31;6.60;;;3.97;;
1380;SDS011;684;48.342;10.096;2022-11-20T02:44:58;6.53;;;4.10;;
1380;SDS011;684;48.342;10.096;2022-11-20T02:47:24;9.00;;;4.67;;
1380;SDS011;684;48.342;10.096;2022-11-20T02:49:51;8.43;;;4.10;;
1380;SDS011;684;48.342;10.096;2022-11-20T02:52:18;8.00;;;4.40;;
1380;SDS011;684;48.342;10.096;2022-11-20T02:54:45;6.30;;;3.67;;
1380;SDS011;684;48.342;10.096;2022-11-20T02:57:13;7.97;;;3.50;;
1380;SDS011;684;48.342;10.096;2022-11-20T02:59:40;10.23;;;4.60;;
1380;SDS011;684;48.342;10.096;2022-11-20T03:02:07;9.00;;;4.20;;
1380;SDS011;684;48.342;10.096;2022-11-20T03:04:34;7.50;;;4.10;;
1380;SDS011;684;48.342;10.096;2022-11-20T03:07:01;7.00;;;4.57;;
1380;SDS011;684;48.342;10.096;2022-11-20T03:09:28;9.50;;;4.63;;
1380;SDS011;684;48.342;10.096;2022-11-20T03:11:55;7.63;;;4.27;;
1380;SDS011;684;48.342;10.096;2022-11-20T03:14:23;8.80;;;4.30;;
1380;SDS011;684;48.342;10.096;2022-11-20T03:16:50;7.50;;;3.87;;
1380;SDS011;684;48.342;10.096;2022-11-20T03:19:17;8.87;;;4.00;;
1380;SDS011;684;48.342;10.096;2022-11-20T03:21:44;9.20;;;5.30;;
1380;SDS011;684;48.342;10.096;2022-11-20T03:24:11;7.03;;;4.40;;
1380;SDS011;684;48.342;10.096;2022-11-20T03:26:38;7.57;;;4.70;;
1380;SDS011;684;48.342;10.096;2022-11-20T03:29:06;8.00;;;4.60;;
1380;SDS011;684;48.342;10.096;2022-11-20T03:31:35;8.10;;;4.60;;
1380;SDS011;684;48.342;10.096;2022-11-20T03:34:05;8.83;;;5.07;;
1380;SDS011;684;48.342;10.096;2022-11-20T03:36:32;6.93;;;4.00;;
1380;SDS011;684;48.342;10.096;2022-11-20T03:39:00;9.60;;;5.53;;
1380;SDS011;684;48.342;10.096;2022-11-20T03:41:28;6.87;;;4.00;;
1380;SDS011;684;48.342;10.096;2022-11-20T03:43:56;7.93;;;4.50;;
1380;SDS011;684;48.342;10.096;2022-11-20T03:46:25;11.37;;;5.63;;
1380;SDS011;684;48.342;10.096;2022-11-20T03:48:54;9.17;;;4.60;;
1380;SDS011;684;48.342;10.096;2022-11-20T03:51:22;8.40;;;4.83;;
1380;SDS011;684;48.342;10.096;2022-11-20T03:53:52;7.60;;;4.63;;
1380;SDS011;684;48.342;10.096;2022-11-20T03:56:22;8.40;;;5.60;;
1380;SDS011;684;48.342;10.096;2022-11-20T03:58:50;9.73;;;5.33;;
1380;SDS011;684;48.342;10.096;2022-11-20T04:01:18;9.17;;;5.53;;
1380;SDS011;684;48.342;10.096;2022-11-20T04:03:46;8.83;;;5.10;;
1380;SDS011;684;48.342;10.096;2022-11-20T04:06:16;8.53;;;5.43;;
1380;SDS011;684;48.342;10.096;2022-11-20T04:08:43;8.50;;;5.90;;
1380;SDS011;684;48.342;10.096;2022-11-20T04:11:12;8.23;;;4.30;;
1380;SDS011;684;48.342;10.096;2022-11-20T04:13:41;9.63;;;5.30;;
1380;SDS011;684;48.342;10.096;2022-11-20T04:16:09;10.40;;;5.63;;
1380;SDS011;684;48.342;10.096;2022-11-20T04:18:36;8.53;;;5.20;;
1380;SDS011;684;48.342;10.096;2022-11-20T04:21:03;10.23;;;5.73;;
1380;SDS011;684;48.342;10.096;2022-11-20T04:23:32;8.00;;;4.70;;
1380;SDS011;684;48.342;10.096;2022-11-20T04:26:02;9.17;;;5.80;;
1380;SDS011;684;48.342;10.096;2022-11-20T04:28:30;9.33;;;5.70;;
1380;SDS011;684;48.342;10.096;2022-11-20T04:31:04;8.67;;;5.63;;
1380;SDS011;684;48.342;10.096;2022-11-20T04:33:32;8.87;;;5.37;;
1380;SDS011;684;48.342;10.096;2022-11-20T04:36:00;12.20;;;5.80;;
1380;SDS011;684;48.342;10.096;2022-11-20T04:38:28;8.87;;;5.37;;
1380;SDS011;684;48.342;10.096;2022-11-20T04:40:57;9.17;;;5.50;;
1380;SDS011;684;48.342;10.096;2022-11-20T04:43:25;10.57;;;6.40;;
1380;SDS011;684;48.342;10.096;2022-11-20T04:45:52;10.77;;;6.67;;
1380;SDS011;684;48.342;10.096;2022-11-20T04:48:19;9.07;;;6.17;;
1380;SDS011;684;48.342;10.096;2022-11-20T04:50:46;9.80;;;6.30;;
1380;SDS011;684;48.342;10.096;2022-11-20T04:53:13;9.80;;;6.73;;
1380;SDS011;684;48.342;10.096;2022-11-20T04:55:40;10.87;;;7.40;;
1380;SDS011;684;48.342;10.096;2022-11-20T04:58:08;10.93;;;6.67;;
1380;SDS011;684;48.342;10.096;2022-11-20T05:00:35;11.20;;;7.23;;
1380;SDS011;684;48.342;10.096;2022-11-20T05:03:02;11.10;;;6.90;;
1380;SDS011;684;48.342;10.096;2022-11-20T05:05:29;10.70;;;7.40;;
1380;SDS011;684;48.342;10.096;2022-11-20T05:07:56;10.50;;;7.57;;
1380;SDS011;684;48.342;10.096;2022-11-20T05:10:24;10.77;;;7.90;;
1380;SDS011;684;48.342;10.096;2022-11-20T05:12:51;13.10;;;8.57;;
1380;SDS011;684;48.342;10.096;2022-11-20T05:15:19;14.47;;;8.23;;
1380;SDS011;684;48.342;10.096;2022-11-20T05:17:47;12.00;;;8.43;;
1380;SDS011;684;48.342;10.096;2022-11-20T05:20:14;12.43;;;8.13;;
1380;SDS011;684;48.342;10.096;2022-11-20T05:22:41;11.30;;;7.80;;
1380;SDS011;684;48.342;10.096;2022-11-20T05:25:08;12.53;;;8.53;;
1380;SDS011;684;48.342;10.096;2022-11-20T05:27:35;11.00;;;7.87;;
1380;SDS011;684;48.342;10.096;2022-11-20T05:30:02;11.00;;;7.60;;
1380;SDS011;684;48.342;10.096;2022-11-20T05:32:31;10.43;;;7.67;;
1380;SDS011;684;48.342;10.096;2022-11-20T05:34:58;14.30;;;9.20;;
1380;SDS011;684;48.342;10.096;2022-11-20T05:37:25;13.13;;;8.90;;
1380;SDS011;684;48.342;10.096;2022-11-20T05:39:52;13.77;;;9.10;;
1380;SDS011;684;48.342;10.096;2022-11-20T05:42:19;12.07;;;8.20;;
1380;SDS011;684;48.342;10.096;2022-11-20T05:44:57;11.17;;;7.60;;
1380;SDS011;684;48.342;10.096;2022-11-20T05:47:25;11.03;;;7.90;;
1380;SDS011;684;48.342;10.096;2022-11-20T05:49:53;12.50;;;8.87;;
1380;SDS011;684;48.342;10.096;2022-11-20T05:52:20;10.87;;;7.60;;
1380;SDS011;684;48.342;10.096;2022-11-20T05:54:47;12.33;;;7.87;;
1380;SDS011;684;48.342;10.096;2022-11-20T05:57:14;13.30;;;8.87;;
1380;SDS011;684;48.342;10.096;2022-11-20T05:59:41;11.23;;;8.10;;
1380;SDS011;684;48.342;10.096;2022-11-20T06:02:08;13.13;;;8.73;;
1380;SDS011;684;48.342;10.096;2022-11-20T06:04:35;13.00;;;7.40;;
1380;SDS011;684;48.342;10.096;2022-11-20T06:07:04;13.40;;;8.37;;
1380;SDS011;684;48.342;10.096;2022-11-20T06:09:31;13.07;;;8.23;;
1380;SDS011;684;48.342;10.096;2022-11-20T06:11:58;9.50;;;6.83;;
1380;SDS011;684;48.342;10.096;2022-11-20T06:14:25;12.40;;;7.60;;
1380;SDS011;684;48.342;10.096;2022-11-20T06:16:52;12.40;;;7.57;;
1380;SDS011;684;48.342;10.096;2022-11-20T06:19:19;11.20;;;7.33;;
1380;SDS011;684;48.342;10.096;2022-11-20T06:21:47;10.93;;;7.27;;
1380;SDS011;684;48.342;10.096;2022-11-20T06:24:16;11.17;;;7.10;;
1380;SDS011;684;48.342;10.096;2022-11-20T06:26:43;13.40;;;8.07;;
1380;SDS011;684;48.342;10.096;2022-11-20T06:29:10;10.00;;;7.17;;
1380;SDS011;684;48.342;10.096;2022-11-20T06:31:37;10.30;;;6.97;;
1380;SDS011;684;48.342;10.096;2022-11-20T06:34:05;9.80;;;6.10;;
1380;SDS011;684;48.342;10.096;2022-11-20T06:36:32;8.30;;;5.37;;
1380;SDS011;684;48.342;10.096;2022-11-20T06:38:59;12.37;;;6.40;;
1380;SDS011;684;48.342;10.096;2022-11-20T06:41:28;11.63;;;6.67;;
1380;SDS011;684;48.342;10.096;2022-11-20T06:43:54;16.90;;;7.07;;
1380;SDS011;684;48.342;10.096;2022-11-20T06:46:21;9.93;;;5.80;;
1380;SDS011;684;48.342;10.096;2022-11-20T06:48:48;13.40;;;7.63;;
1380;SDS011;684;48.342;10.096;2022-11-20T06:51:16;9.90;;;5.87;;
1380;SDS011;684;48.342;10.096;2022-11-20T06:53:43;9.10;;;6.20;;
1380;SDS011;684;48.342;10.096;2022-11-20T06:56:10;8.30;;;5.50;;
1380;SDS011;684;48.342;10.096;2022-11-20T06:58:38;9.87;;;6.60;;
1380;SDS011;684;48.342;10.096;2022-11-20T07:01:05;8.07;;;5.53;;
1380;SDS011;684;48.342;10.096;2022-11-20T07:03:34;8.53;;;4.97;;
1380;SDS011;684;48.342;10.096;2022-11-20T07:06:02;10.80;;;6.07;;
1380;SDS011;684;48.342;10.096;2022-11-20T07:08:30;9.60;;;5.70;;
1380;SDS011;684;48.342;10.096;2022-11-20T07:10:57;12.07;;;6.20;;
1380;SDS011;684;48.342;10.096;2022-11-20T07:13:24;7.47;;;4.47;;
1380;SDS011;684;48.342;10.096;2022-11-20T07:15:53;9.70;;;5.40;;
1380;SDS011;684;48.342;10.096;2022-11-20T07:18:20;11.63;;;6.10;;
1380;SDS011;684;48.342;10.096;2022-11-20T07:20:47;9.77;;;5.87;;
1380;SDS011;684;48.342;10.096;2022-11-20T07:23:14;11.10;;;5.53;;
1380;SDS011;684;48.342;10.096;2022-11-20T07:25:41;10.00;;;5.77;;
1380;SDS011;684;48.342;10.096;2022-11-20T07:28:08;8.50;;;5.50;;
1380;SDS011;684;48.342;10.096;2022-11-20T07:30:35;9.90;;;5.50;;
1380;SDS011;684;48.342;10.096;2022-11-20T07:33:04;10.57;;;5.67;;
1380;SDS011;684;48.342;10.096;2022-11-20T07:35:31;9.57;;;5.87;;
1380;SDS011;684;48.342;10.096;2022-11-20T07:37:58;9.60;;;5.20;;
1380;SDS011;684;48.342;10.096;2022-11-20T07:40:25;8.23;;;4.80;;
1380;SDS011;684;48.342;10.096;2022-11-20T07:42:53;9.00;;;5.20;;
1380;SDS011;684;48.342;10.096;2022-11-20T07:45:21;7.93;;;5.67;;
1380;SDS011;684;48.342;10.096;2022-11-20T07:47:50;10.33;;;5.17;;
1380;SDS011;684;48.342;10.096;2022-11-20T07:50:18;7.87;;;4.73;;
1380;SDS011;684;48.342;10.096;2022-11-20T07:52:46;8.27;;;4.77;;
1380;SDS011;684;48.342;10.096;2022-11-20T07:55:13;6.73;;;4.50;;
1380;SDS011;684;48.342;10.096;2022-11-20T07:57:41;10.43;;;4.50;;
1380;SDS011;684;48.342;10.096;2022-11-20T08:00:08;7.87;;;4.77;;
1380;SDS011;684;48.342;10.096;2022-11-20T08:02:37;8.93;;;4.43;;
1380;SDS011;684;48.342;10.096;2022-11-20T08:05:05;6.93;;;4.10;;
1380;SDS011;684;48.342;10.096;2022-11-20T08:07:36;7.67;;;4.87;;
1380;SDS011;684;48.342;10.096;2022-11-20T08:10:04;7.50;;;4.43;;
1380;SDS011;684;48.342;10.096;2022-11-20T08:12:31;8.37;;;4.30;;
1380;SDS011;684;48.342;10.096;2022-11-20T08:15:16;8.10;;;4.60;;
1380;SDS011;684;48.342;10.096;2022-11-20T08:17:43;7.30;;;4.73;;
1380;SDS011;684;48.342;10.096;2022-11-20T08:20:10;8.80;;;4.47;;
1380;SDS011;684;48.342;10.096;2022-11-20T08:22:38;8.90;;;4.23;;
1380;SDS011;684;48.342;10.096;2022-11-20T08:25:05;7.20;;;4.10;;
1380;SDS011;684;48.342;10.096;2022-11-20T08:27:33;8.80;;;4.23;;
1380;SDS011;684;48.342;10.096;2022-11-20T08:30:00;7.40;;;3.93;;
1380;SDS011;684;48.342;10.096;2022-11-20T08:32:26;6.50;;;3.70;;
1380;SDS011;684;48.342;10.096;2022-11-20T08:34:53;7.57;;;3.90;;
1380;SDS011;684;48.342;10.096;2022-11-20T08:37:20;7.40;;;3.93;;
1380;SDS011;684;48.342;10.096;2022-11-20T08:39:48;7.20;;;4.30;;
1380;SDS011;684;48.342;10.096;2022-11-20T08:42:15;6.40;;;3.80;;
1380;SDS011;684;48.342;10.096;2022-11-20T08:44:42;8.43;;;4.47;;
1380;SDS011;684;48.342;10.096;2022-11-20T08:47:09;8.73;;;4.70;;
1380;SDS011;684;48.342;10.096;2022-11-20T08:49:36;8.63;;;4.47;;
1380;SDS011;684;48.342;10.096;2022-11-20T08:52:02;7.83;;;4.87;;
1380;SDS011;684;48.342;10.096;2022-11-20T08:54:30;8.67;;;5.47;;
1380;SDS011;684;48.342;10.096;2022-11-20T08:56:59;8.27;;;4.90;;
1380;SDS011;684;48.342;10.096;2022-11-20T08:59:26;9.17;;;5.97;;
1380;SDS011;684;48.342;10.096;2022-11-20T09:01:52;7.40;;;4.30;;
1380;SDS011;684;48.342;10.096;2022-11-20T09:04:19;7.07;;;4.53;;
1380;SDS011;684;48.342;10.096;2022-11-20T09:06:46;7.70;;;4.00;;
1380;SDS011;684;48.342;10.096;2022-11-20T09:09:16;8.00;;;4.10;;
1380;SDS011;684;48.342;10.096;2022-11-20T09:11:43;7.53;;;4.47;;
1380;SDS011;684;48.342;10.096;2022-11-20T09:14:11;7.83;;;4.83;;
1380;SDS011;684;48.342;10.096;2022-11-20T09:16:38;9.90;;;5.70;;
1380;SDS011;684;48.342;10.096;2022-11-20T09:19:05;6.57;;;3.10;;
1380;SDS011;684;48.342;10.096;2022-11-20T09:21:32;6.97;;;3.10;;
1380;SDS011;684;48.342;10.096;2022-11-20T09:23:59;5.40;;;2.57;;
1380;SDS011;684;48.342;10.096;2022-11-20T09:26:26;5.87;;;2.80;;
1380;SDS011;684;48.342;10.096;2022-11-20T09:28:52;5.27;;;2.63;;
1380;SDS011;684;48.342;10.096;2022-11-20T09:31:23;5.17;;;2.63;;
1380;SDS011;684;48.342;10.096;2022-11-20T09:33:51;5.80;;;2.77;;
1380;SDS011;684;48.342;10.096;2022-11-20T09:36:18;7.33;;;4.13;;
1380;SDS011;684;48.342;10.096;2022-11-20T09:38:45;5.93;;;2.50;;
1380;SDS011;684;48.342;10.096;2022-11-20T09:41:19;10.10;;;5.43;;
1380;SDS011;684;48.342;10.096;2022-11-20T09:43:59;4.70;;;2.20;;
1380;SDS011;684;48.342;10.096;2022-11-20T09:46:38;4.77;;;2.47;;
1380;SDS011;684;48.342;10.096;2022-11-20T09:49:17;6.23;;;3.23;;
1380;SDS011;684;48.342;10.096;2022-11-20T09:51:56;7.00;;;3.57;;
1380;SDS011;684;48.342;10.096;2022-11-20T09:54:26;6.20;;;3.30;;
1380;SDS011;684;48.342;10.096;2022-11-20T09:56:58;7.53;;;3.47;;
1380;SDS011;684;48.342;10.096;2022-11-20T09:59:33;6.00;;;3.00;;
1380;SDS011;684;48.342;10.096;2022-11-20T10:02:12;5.87;;;3.07;;
1380;SDS011;684;48.342;10.096;2022-11-20T10:04:43;6.80;;;3.30;;
1380;SDS011;684;48.342;10.096;2022-11-20T10:07:15;6.37;;;3.63;;
1380;SDS011;684;48.342;10.096;2022-11-20T10:09:48;6.40;;;3.30;;
1380;SDS011;684;48.342;10.096;2022-11-20T10:12:19;5.83;;;2.90;;
1380;SDS011;684;48.342;10.096;2022-11-20T10:14:56;6.13;;;3.70;;
1380;SDS011;684;48.342;10.096;2022-11-20T10:17:39;5.50;;;2.73;;
1380;SDS011;684;48.342;10.096;2022-11-20T10:20:28;5.60;;;2.20;;
1380;SDS011;684;48.342;10.096;2022-11-20T10:23:11;6.80;;;2.70;;
1380;SDS011;684;48.342;10.096;2022-11-20T10:25:52;6.17;;;2.23;;
1380;SDS011;684;48.342;10.096;2022-11-20T10:31:25;6.37;;;2.00;;
1380;SDS011;684;48.342;10.096;2022-11-20T10:33:59;5.50;;;2.33;;
1380;SDS011;684;48.342;10.096;2022-11-20T10:36:30;5.10;;;1.90;;
1380;SDS011;684;48.342;10.096;2022-11-20T10:39:03;5.30;;;2.30;;
1380;SDS011;684;48.342;10.096;2022-11-20T10:41:38;4.40;;;2.03;;
1380;SDS011;684;48.342;10.096;2022-11-20T10:44:09;12.20;;;6.00;;
1380;SDS011;684;48.342;10.096;2022-11-20T10:47:02;8.77;;;4.50;;
1380;SDS011;684;48.342;10.096;2022-11-20T10:49:32;9.07;;;4.80;;
1380;SDS011;684;48.342;10.096;2022-11-20T10:52:02;7.90;;;3.50;;
1380;SDS011;684;48.342;10.096;2022-11-20T10:54:39;5.30;;;2.50;;
1380;SDS011;684;48.342;10.096;2022-11-20T10:57:17;5.03;;;2.20;;
1380;SDS011;684;48.342;10.096;2022-11-20T11:00:01;5.70;;;3.13;;
1380;SDS011;684;48.342;10.096;2022-11-20T11:02:34;5.03;;;2.00;;
1380;SDS011;684;48.342;10.096;2022-11-20T11:05:10;4.87;;;2.00;;
1380;SDS011;684;48.342;10.096;2022-11-20T11:07:47;5.17;;;2.20;;
1380;SDS011;684;48.342;10.096;2022-11-20T11:10:17;4.13;;;1.80;;
1380;SDS011;684;48.342;10.096;2022-11-20T11:12:46;4.93;;;1.93;;
1380;SDS011;684;48.342;10.096;2022-11-20T11:15:15;4.67;;;1.77;;
1380;SDS011;684;48.342;10.096;2022-11-20T11:17:52;4.80;;;1.90;;
1380;SDS011;684;48.342;10.096;2022-11-20T11:20:21;5.43;;;1.97;;
1380;SDS011;684;48.342;10.096;2022-11-20T11:22:51;6.60;;;2.10;;
1380;SDS011;684;48.342;10.096;2022-11-20T11:25:21;4.40;;;1.83;;
1380;SDS011;684;48.342;10.096;2022-11-20T11:27:50;5.10;;;2.20;;
1380;SDS011;684;48.342;10.096;2022-11-20T11:30:20;4.50;;;1.90;;
1380;SDS011;684;48.342;10.096;2022-11-20T11:32:47;5.33;;;2.10;;
1380;SDS011;684;48.342;10.096;2022-11-20T11:35:23;6.73;;;2.40;;
1380;SDS011;684;48.342;10.096;2022-11-20T11:37:53;6.50;;;2.83;;
1380;SDS011;684;48.342;10.096;2022-11-20T11:40:29;8.60;;;3.50;;
1380;SDS011;684;48.342;10.096;2022-11-20T11:42:59;8.33;;;3.33;;
1380;SDS011;684;48.342;10.096;2022-11-20T11:45:30;8.60;;;3.17;;
1380;SDS011;684;48.342;10.096;2022-11-20T11:47:57;8.40;;;4.00;;
1380;SDS011;684;48.342;10.096;2022-11-20T11:50:28;4.80;;;2.07;;
1380;SDS011;684;48.342;10.096;2022-11-20T11:53:07;4.83;;;2.00;;
1380;SDS011;684;48.342;10.096;2022-11-20T11:55:40;6.73;;;2.73;;
1380;SDS011;684;48.342;10.096;2022-11-20T11:58:19;6.50;;;3.17;;
1380;SDS011;684;48.342;10.096;2022-11-20T12:00:57;7.70;;;3.67;;
1380;SDS011;684;48.342;10.096;2022-11-20T12:03:29;5.43;;;2.93;;
1380;SDS011;684;48.342;10.096;2022-11-20T12:06:05;5.00;;;2.30;;
1380;SDS011;684;48.342;10.096;2022-11-20T12:08:39;5.37;;;2.40;;
1380;SDS011;684;48.342;10.096;2022-11-20T12:11:11;5.00;;;2.27;;
1380;SDS011;684;48.342;10.096;2022-11-20T12:13:44;5.43;;;1.90;;
1380;SDS011;684;48.342;10.096;2022-11-20T12:16:17;4.70;;;2.03;;
1380;SDS011;684;48.342;10.096;2022-11-20T12:18:46;4.70;;;2.23;;
1380;SDS011;684;48.342;10.096;2022-11-20T12:21:23;5.03;;;2.33;;
1380;SDS011;684;48.342;10.096;2022-11-20T12:24:09;5.73;;;2.27;;
1380;SDS011;684;48.342;10.096;2022-11-20T12:27:05;5.60;;;2.37;;
1380;SDS011;684;48.342;10.096;2022-11-20T12:29:57;5.50;;;1.63;;
1380;SDS011;684;48.342;10.096;2022-11-20T12:32:36;4.27;;;1.60;;
1380;SDS011;684;48.342;10.096;2022-11-20T12:35:29;5.47;;;2.43;;
1380;SDS011;684;48.342;10.096;2022-11-20T12:38:15;4.90;;;2.20;;
1380;SDS011;684;48.342;10.096;2022-11-20T12:41:18;4.30;;;1.80;;
1380;SDS011;684;48.342;10.096;2022-11-20T12:44:14;4.83;;;2.27;;
1380;SDS011;684;48.342;10.096;2022-11-20T12:47:12;6.13;;;2.03;;
1380;SDS011;684;48.342;10.096;2022-11-20T12:49:45;5.20;;;2.17;;
1380;SDS011;684;48.342;10.096;2022-11-20T12:52:20;4.23;;;1.80;;
1380;SDS011;684;48.342;10.096;2022-11-20T12:55:13;4.93;;;2.60;;
1380;SDS011;684;48.342;10.096;2022-11-20T12:57:55;7.73;;;2.73;;
1380;SDS011;684;48.342;10.096;2022-11-20T13:00:26;5.10;;;2.60;;
1380;SDS011;684;48.342;10.096;2022-11-20T13:03:07;6.80;;;3.60;;
1380;SDS011;684;48.342;10.096;2022-11-20T13:05:54;5.50;;;2.57;;
1380;SDS011;684;48.342;10.096;2022-11-20T13:08:27;6.87;;;4.23;;
1380;SDS011;684;48.342;10.096;2022-11-20T13:11:01;6.50;;;3.80;;
1380;SDS011;684;48.342;10.096;2022-11-20T13:13:42;6.53;;;4.10;;
1380;SDS011;684;48.342;10.096;2022-11-20T13:16:16;4.97;;;2.57;;
1380;SDS011;684;48.342;10.096;2022-11-20T13:18:46;6.50;;;2.90;;
1380;SDS011;684;48.342;10.096;2022-11-20T13:21:16;4.30;;;1.70;;
1380;SDS011;684;48.342;10.096;2022-11-20T13:23:47;12.70;;;6.20;;
1380;SDS011;684;48.342;10.096;2022-11-20T13:26:16;4.47;;;1.97;;
1380;SDS011;684;48.342;10.096;2022-11-20T13:28:46;5.70;;;2.13;;
1380;SDS011;684;48.342;10.096;2022-11-20T13:31:31;5.00;;;2.37;;
1380;SDS011;684;48.342;10.096;2022-11-20T13:34:02;5.57;;;2.83;;
1380;SDS011;684;48.342;10.096;2022-11-20T13:36:32;4.93;;;2.23;;
1380;SDS011;684;48.342;10.096;2022-11-20T13:39:01;4.53;;;1.80;;
1380;SDS011;684;48.342;10.096;2022-11-20T13:41:31;4.37;;;1.90;;
1380;SDS011;684;48.342;10.096;2022-11-20T13:44:05;6.17;;;2.87;;
1380;SDS011;684;48.342;10.096;2022-11-20T13:46:39;5.10;;;1.30;;
1380;SDS011;684;48.342;10.096;2022-11-20T13:49:09;5.40;;;1.50;;
1380;SDS011;684;48.342;10.096;2022-11-20T13:51:43;4.80;;;2.10;;
1380;SDS011;684;48.342;10.096;2022-11-20T13:54:22;4.73;;;1.70;;
1380;SDS011;684;48.342;10.096;2022-11-20T13:57:22;3.80;;;1.00;;
1380;SDS011;684;48.342;10.096;2022-11-20T14:00:11;4.77;;;1.40;;
1380;SDS011;684;48.342;10.096;2022-11-20T14:02:40;4.60;;;1.47;;
1380;SDS011;684;48.342;10.096;2022-11-20T14:07:45;7.63;;;1.67;;
1380;SDS011;684;48.342;10.096;2022-11-20T14:10:19;4.70;;;1.57;;
1380;SDS011;684;48.342;10.096;2022-11-20T14:12:50;4.47;;;1.37;;
1380;SDS011;684;48.342;10.096;2022-11-20T14:15:24;4.10;;;1.37;;
1380;SDS011;684;48.342;10.096;2022-11-20T14:17:52;4.90;;;1.23;;
1380;SDS011;684;48.342;10.096;2022-11-20T14:20:19;6.40;;;3.10;;
1380;SDS011;684;48.342;10.096;2022-11-20T14:22:50;5.33;;;2.70;;
1380;SDS011;684;48.342;10.096;2022-11-20T14:25:19;5.40;;;1.70;;
1380;SDS011;684;48.342;10.096;2022-11-20T14:27:52;4.83;;;1.23;;
1380;SDS011;684;48.342;10.096;2022-11-20T14:30:20;4.93;;;1.17;;
1380;SDS011;684;48.342;10.096;2022-11-20T14:32:48;4.03;;;1.23;;
1380;SDS011;684;48.342;10.096;2022-11-20T14:35:18;6.47;;;2.33;;
1380;SDS011;684;48.342;10.096;2022-11-20T14:37:49;4.40;;;1.60;;
1380;SDS011;684;48.342;10.096;2022-11-20T14:40:27;5.90;;;1.80;;
1380;SDS011;684;48.342;10.096;2022-11-20T14:42:57;4.90;;;1.53;;
1380;SDS011;684;48.342;10.096;2022-11-20T14:45:25;5.17;;;1.60;;
1380;SDS011;684;48.342;10.096;2022-11-20T14:47:53;4.03;;;1.30;;
1380;SDS011;684;48.342;10.096;2022-11-20T14:50:23;3.90;;;1.40;;
1380;SDS011;684;48.342;10.096;2022-11-20T14:52:51;4.67;;;1.60;;
1380;SDS011;684;48.342;10.096;2022-11-20T14:55:29;4.17;;;1.20;;
1380;SDS011;684;48.342;10.096;2022-11-20T14:57:59;4.20;;;1.50;;
1380;SDS011;684;48.342;10.096;2022-11-20T15:00:28;4.10;;;1.40;;
1380;SDS011;684;48.342;10.096;2022-11-20T15:02:56;6.47;;;1.93;;
1380;SDS011;684;48.342;10.096;2022-11-20T15:05:25;3.87;;;1.10;;
1380;SDS011;684;48.342;10.096;2022-11-20T15:08:09;4.60;;;1.40;;
1380;SDS011;684;48.342;10.096;2022-11-20T15:10:36;5.03;;;1.40;;
1380;SDS011;684;48.342;10.096;2022-11-20T15:13:06;4.10;;;1.40;;
1380;SDS011;684;48.342;10.096;2022-11-20T15:15:40;5.17;;;1.50;;
1380;SDS011;684;48.342;10.096;2022-11-20T15:18:12;3.67;;;1.10;;
1380;SDS011;684;48.342;10.096;2022-11-20T15:20:40;5.07;;;1.60;;
1380;SDS011;684;48.342;10.096;2022-11-20T15:23:09;5.27;;;1.40;;
1380;SDS011;684;48.342;10.096;2022-11-20T15:25:37;5.17;;;1.53;;
1380;SDS011;684;48.342;10.096;2022-11-20T15:28:09;4.23;;;1.23;;
1380;SDS011;684;48.342;10.096;2022-11-20T15:30:42;5.30;;;1.50;;
1380;SDS011;684;48.342;10.096;2022-11-20T15:33:09;3.90;;;1.37;;
1380;SDS011;684;48.342;10.096;2022-11-20T15:35:36;4.70;;;1.70;;
1380;SDS011;684;48.342;10.096;2022-11-20T15:38:03;4.70;;;1.30;;